createdAt,value
2019-05-09T00:00:14.297Z,67.90
2019-05-09T00:05:22.691Z,68.33
2019-05-09T00:10:39.373Z,68.94
2019-05-09T00:15:38.062Z,70.12
2019-05-09T00:20:53.957Z,70.63
2019-05-09T00:26:00.678Z,71.23
2019-05-09T00:31:17.106Z,71.89
2019-05-09T00:36:24.375Z,71.89
2019-05-09T00:41:33.065Z,72.14
2019-05-09T00:46:48.264Z,72.31
2019-05-09T00:51:55.448Z,72.50
2019-05-09T00:57:03.170Z,72.57
2019-05-09T01:02:12.657Z,72.79
2019-05-09T01:07:19.435Z,72.96
2019-05-09T01:12:26.462Z,73.38
2019-05-09T01:17:34.448Z,73.52
2019-05-09T01:22:43.539Z,73.63
2019-05-09T01:27:50.396Z,73.51
2019-05-09T01:37:03.502Z,74.66
2019-05-09T01:42:10.430Z,73.86
2019-05-09T01:47:18.576Z,73.86
2019-05-09T01:52:25.437Z,74.39
2019-05-09T01:57:33.722Z,74.39
2019-05-09T02:02:40.707Z,74.41
2019-05-09T02:07:47.561Z,74.58
2019-05-09T02:12:54.432Z,74.63
2019-05-09T02:18:17.259Z,74.63
2019-05-09T02:23:23.403Z,74.57
2019-05-09T02:28:30.570Z,74.51
2019-05-09T02:33:37.461Z,74.43
2019-05-09T02:38:44.438Z,74.59
2019-05-09T02:43:51.453Z,74.59
2019-05-09T02:48:59.423Z,74.63
2019-05-09T02:54:09.755Z,74.32
2019-05-09T02:59:21.709Z,74.59
2019-05-09T03:04:28.657Z,74.59
2019-05-09T03:09:38.842Z,74.58
2019-05-09T03:14:45.482Z,74.72
2019-05-09T03:19:52.430Z,74.68
2019-05-09T03:24:59.449Z,74.89
2019-05-09T03:30:11.974Z,75.06
2019-05-09T03:35:17.322Z,75.04
2019-05-09T03:40:23.286Z,75.17
2019-05-09T03:45:30.991Z,75.27
2019-05-09T03:50:38.365Z,75.29
2019-05-09T04:00:47.922Z,75.41
2019-05-09T04:06:01.931Z,75.57
2019-05-09T04:11:03.876Z,75.48
2019-05-09T04:16:10.667Z,75.36
2019-05-09T04:21:17.647Z,75.47
2019-05-09T04:26:33.385Z,75.35
2019-05-09T04:31:40.421Z,75.35
2019-05-09T04:36:48.350Z,75.29
2019-05-09T04:42:03.484Z,74.72
2019-05-09T04:47:04.411Z,74.72
2019-05-09T04:52:11.566Z,74.63
2019-05-09T04:57:18.570Z,74.67
2019-05-09T05:02:32.278Z,74.24
2019-05-09T05:07:39.412Z,74.24
2019-05-09T05:12:48.450Z,73.96
2019-05-09T05:17:55.365Z,72.88
2019-05-09T05:23:12.052Z,72.88
2019-05-09T05:28:19.039Z,72.65
2019-05-09T05:33:53.792Z,72.65
2019-05-09T05:38:59.457Z,72.62
2019-05-09T05:44:08.367Z,72.79
2019-05-09T05:49:15.403Z,72.63
2019-05-09T05:54:22.571Z,72.02
2019-05-09T05:59:30.941Z,70.86
2019-05-09T06:04:38.412Z,70.86
2019-05-09T06:09:45.445Z,70.52
2019-05-09T06:14:52.548Z,70.52
2019-05-09T06:19:59.450Z,70.18
2019-05-09T06:25:10.094Z,69.56
2019-05-09T06:30:24.268Z,69.56
2019-05-09T06:35:31.432Z,69.38
2019-05-09T06:40:38.499Z,68.73
2019-05-09T06:46:04.541Z,67.95
2019-05-09T06:51:11.473Z,67.95
2019-05-09T06:56:18.471Z,67.95
2019-05-09T07:01:39.971Z,67.10
2019-05-09T07:06:58.831Z,67.12
2019-05-09T07:12:07.852Z,65.29
2019-05-09T07:17:14.439Z,65.13
2019-05-09T07:22:50.974Z,65.13
2019-05-09T07:28:01.559Z,65.24
2019-05-09T07:33:28.431Z,64.06
2019-05-09T07:38:38.795Z,63.81
2019-05-09T07:43:47.794Z,63.81
2019-05-09T07:48:57.611Z,63.24
2019-05-09T07:54:20.061Z,63.24
2019-05-09T07:59:18.191Z,63.00
2019-05-09T08:04:28.383Z,62.90
2019-05-09T08:09:34.404Z,62.36
2019-05-09T08:14:41.596Z,61.87
2019-05-09T08:19:48.716Z,61.70
2019-05-09T08:24:57.642Z,60.99
2019-05-09T08:30:07.692Z,60.99
2019-05-09T08:35:13.438Z,60.66
2019-05-09T08:40:21.546Z,60.15
2019-05-09T08:45:31.203Z,60.15
2019-05-09T08:50:40.990Z,60.39
2019-05-09T08:55:47.670Z,59.96
2019-05-09T09:00:54.587Z,59.40
2019-05-09T09:06:01.468Z,59.40
2019-05-09T09:11:08.785Z,59.87
2019-05-09T09:16:19.967Z,59.09
2019-05-09T09:21:24.592Z,59.20
2019-05-09T09:26:31.495Z,57.61
2019-05-09T09:31:42.044Z,57.02
2019-05-09T09:36:49.246Z,57.02
2019-05-09T09:41:58.499Z,55.47
2019-05-09T09:47:07.316Z,55.47
2019-05-09T09:52:14.422Z,53.94
2019-05-09T09:57:21.577Z,53.85
2019-05-09T10:07:27.955Z,57.30
2019-05-09T10:12:43.513Z,55.83
2019-05-09T10:17:50.312Z,55.45
2019-05-09T10:23:03.332Z,55.24
2019-05-09T10:28:04.687Z,54.50
2019-05-09T10:33:11.543Z,53.44
2019-05-09T10:38:18.669Z,51.26
2019-05-09T10:43:40.248Z,51.26
2019-05-09T10:48:53.264Z,50.66
2019-05-09T10:54:00.582Z,50.51
2019-05-09T10:59:08.008Z,49.81
2019-05-09T11:04:17.859Z,49.26
2019-05-09T11:09:24.391Z,49.22
2019-05-09T11:14:36.996Z,49.96
2019-05-09T11:19:40.253Z,48.62
2019-05-09T11:24:50.554Z,47.29
2019-05-09T11:29:57.821Z,47.06
2019-05-09T11:35:08.801Z,45.94
2019-05-09T11:40:15.231Z,46.75
2019-05-09T11:45:22.435Z,47.36
2019-05-09T11:50:29.524Z,48.19
2019-05-09T11:55:42.903Z,48.08
2019-05-09T12:00:48.491Z,49.84
2019-05-09T12:05:55.438Z,49.84
2019-05-09T12:11:02.592Z,50.77
2019-05-09T12:16:09.578Z,51.28
2019-05-09T12:21:19.128Z,51.58
2019-05-09T12:26:28.826Z,51.58
2019-05-09T12:31:35.423Z,50.46
2019-05-09T12:36:42.596Z,47.87
2019-05-09T12:41:49.548Z,43.80
2019-05-09T12:46:58.197Z,44.76
2019-05-09T12:52:08.058Z,44.76
2019-05-09T12:57:14.273Z,43.45
2019-05-09T13:02:21.415Z,44.53
2019-05-09T13:07:29.662Z,42.65
2019-05-09T13:12:38.619Z,41.87
2019-05-09T13:17:47.891Z,42.38
2019-05-09T13:22:53.256Z,42.38
2019-05-09T13:28:02.428Z,41.74
2019-05-09T13:33:10.909Z,42.14
2019-05-09T13:38:19.460Z,42.73
2019-05-09T13:43:28.122Z,42.93
2019-05-09T13:48:57.284Z,43.38
2019-05-09T13:53:44.591Z,44.51
2019-05-09T13:58:51.533Z,45.32
2019-05-09T14:03:58.864Z,45.32
2019-05-09T14:09:10.295Z,45.05
2019-05-09T14:14:17.888Z,44.22
2019-05-09T14:19:35.847Z,42.04
2019-05-09T14:24:34.409Z,41.34
2019-05-09T14:29:41.457Z,40.63
2019-05-09T14:34:49.211Z,40.86
2019-05-09T14:39:59.551Z,41.34
2019-05-09T14:45:08.571Z,40.36
2019-05-09T14:50:17.909Z,38.25
2019-05-09T14:55:23.268Z,38.25
2019-05-09T15:00:32.069Z,38.50
2019-05-09T15:05:40.553Z,38.63
2019-05-09T15:10:47.448Z,39.79
2019-05-09T15:15:54.517Z,39.79
2019-05-09T15:21:01.437Z,40.09
2019-05-09T15:26:08.430Z,39.13
2019-05-09T15:31:18.123Z,39.25
2019-05-09T15:36:24.412Z,38.87
2019-05-09T15:41:31.443Z,39.88
2019-05-09T15:46:45.503Z,39.50
2019-05-09T15:51:52.584Z,38.89
2019-05-09T15:56:59.540Z,38.57
2019-05-09T16:02:08.941Z,38.57
2019-05-09T16:07:17.986Z,38.32
2019-05-09T16:12:27.816Z,35.99
2019-05-09T16:17:34.415Z,33.54
2019-05-09T16:22:41.573Z,32.29
2019-05-09T16:27:53.065Z,32.36
2019-05-09T16:33:00.418Z,34.46
2019-05-09T16:38:10.744Z,35.15
2019-05-09T16:43:17.906Z,35.56
2019-05-09T16:48:25.059Z,35.96
2019-05-09T16:53:33.267Z,35.47
2019-05-09T16:58:41.512Z,34.59
2019-05-09T17:03:50.551Z,35.38
2019-05-09T17:08:58.385Z,36.71
2019-05-09T17:14:08.002Z,37.24
2019-05-09T17:19:14.457Z,37.96
2019-05-09T17:24:21.566Z,38.42
2019-05-09T17:29:28.480Z,37.46
2019-05-09T17:34:37.919Z,36.52
2019-05-09T17:39:44.438Z,36.27
2019-05-09T17:44:53.278Z,36.80
2019-05-09T17:50:00.517Z,37.38
2019-05-09T17:55:09.058Z,39.43
2019-05-09T18:00:21.342Z,39.43
2019-05-09T18:05:26.558Z,40.45
2019-05-09T18:10:33.763Z,41.48
2019-05-09T18:15:40.578Z,42.18
2019-05-09T18:20:47.597Z,43.08
2019-05-09T18:26:01.153Z,44.50
2019-05-09T18:31:08.580Z,44.50
2019-05-09T18:36:15.463Z,46.23
2019-05-09T18:41:25.585Z,46.23
2019-05-09T18:46:32.628Z,47.46
2019-05-09T18:51:41.575Z,47.73
2019-05-09T18:56:48.443Z,48.03
2019-05-09T19:01:55.456Z,48.03
2019-05-09T19:07:03.554Z,48.38
2019-05-09T19:12:10.622Z,48.63
2019-05-09T19:17:36.255Z,49.31
2019-05-09T19:22:43.552Z,49.31
2019-05-09T19:27:53.048Z,49.98
2019-05-09T19:33:00.431Z,50.54
2019-05-09T19:38:09.420Z,51.58
2019-05-09T19:43:16.511Z,52.67
2019-05-09T19:48:24.458Z,53.55
2019-05-09T19:53:31.474Z,54.34
2019-05-09T19:58:38.480Z,54.96
2019-05-09T20:03:45.575Z,55.46
2019-05-09T20:08:52.477Z,55.88
2019-05-09T20:14:37.263Z,56.15
2019-05-09T20:19:44.435Z,56.45
2019-05-09T20:24:51.611Z,56.67
2019-05-09T20:29:58.461Z,57.00
2019-05-09T20:35:06.112Z,57.20
2019-05-09T20:40:13.853Z,57.34
2019-05-09T20:45:21.140Z,57.52
2019-05-09T20:50:31.711Z,57.84
2019-05-09T20:55:39.265Z,58.04
2019-05-09T21:00:47.698Z,58.27
2019-05-09T21:05:54.785Z,58.67
2019-05-09T21:11:02.756Z,58.67
2019-05-09T21:16:09.931Z,58.80
2019-05-09T21:21:18.761Z,58.99
2019-05-09T21:26:26.273Z,59.16
2019-05-09T21:31:34.753Z,59.15
2019-05-09T21:36:42.078Z,59.31
2019-05-09T21:41:49.607Z,59.68
2019-05-09T21:46:57.460Z,59.68
2019-05-09T21:52:04.483Z,60.14
2019-05-09T21:57:12.460Z,60.52
2019-05-09T22:02:20.115Z,60.93
2019-05-09T22:11:19.627Z,62.24
2019-05-09T22:16:26.550Z,61.78
2019-05-09T22:21:37.115Z,61.78
2019-05-09T22:26:48.583Z,62.18
2019-05-09T22:31:54.354Z,62.63
2019-05-09T22:37:01.486Z,63.05
2019-05-09T22:42:08.498Z,63.39
2019-05-09T22:47:14.288Z,63.76
2019-05-09T22:52:21.414Z,64.18
2019-05-09T22:57:28.433Z,64.67
2019-05-09T23:02:34.344Z,65.17
2019-05-09T23:07:41.571Z,65.78
2019-05-09T23:12:48.583Z,66.08
2019-05-09T23:17:55.479Z,66.31
2019-05-09T23:23:23.262Z,66.31
2019-05-09T23:28:30.457Z,66.89
2019-05-09T23:33:40.274Z,67.26
2019-05-09T23:39:05.410Z,68.01
2019-05-09T23:44:11.293Z,68.19
2019-05-09T23:49:18.421Z,68.31
2019-05-09T23:54:46.404Z,68.32
